Time;durP1;ratioP1;P1;durP2;ratioP2;P2;SDS_P1;SDS_P2;PMS_P1;PMS_P2;Temp;Humidity;BMP_temperature;BMP_pressure;BME280_temperature;BME280_humidity;BME280_pressure;Samples;Min_cycle;Max_cycle;Signal;HPM_P1;HPM_P2
2022/06/21 00:01:37;;;;;;;2.90;2.63;;;12.80;99.90;;;;;;5056916;28;20390;-83
2022/06/21 00:04:22;;;;;;;3.10;2.10;;;12.50;99.90;;;;;;5057656;28;20490;-83
2022/06/21 00:07:21;;;;;;;5.70;2.40;;;12.30;99.90;;;;;;5056407;28;20403;-84
2022/06/21 00:10:14;;;;;;;4.30;3.20;;;12.50;99.90;;;;;;5057206;28;20487;-84
2022/06/21 00:12:59;;;;;;;5.53;3.00;;;12.60;99.90;;;;;;5057218;28;20467;-84
2022/06/21 00:15:45;;;;;;;2.97;2.77;;;12.60;99.90;;;;;;5043151;28;20475;-82
2022/06/21 00:18:33;;;;;;;3.90;2.77;;;12.60;99.90;;;;;;5055272;28;20487;-84
2022/06/21 00:21:22;;;;;;;2.47;2.27;;;12.30;99.90;;;;;;5049741;28;20395;-84
2022/06/21 00:24:07;;;;;;;3.30;3.10;;;12.40;99.90;;;;;;5036555;28;20476;-83
2022/06/21 00:26:51;;;;;;;5.33;2.50;;;12.40;99.90;;;;;;5040401;28;20378;-84
2022/06/21 00:29:36;;;;;;;2.60;2.40;;;12.40;99.90;;;;;;5050586;28;20465;-84
2022/06/21 00:32:21;;;;;;;4.80;2.47;;;12.40;99.90;;;;;;5040552;28;20406;-84
2022/06/21 00:35:13;;;;;;;2.80;2.47;;;12.50;99.90;;;;;;5041622;28;20911;-84
2022/06/21 00:37:58;;;;;;;3.07;2.77;;;12.40;99.90;;;;;;5040773;28;20391;-84
2022/06/21 00:40:44;;;;;;;2.10;2.00;;;12.40;99.90;;;;;;5039860;28;20410;-84
2022/06/21 00:43:33;;;;;;;2.42;2.22;;;12.70;99.90;;;;;;5039600;28;20416;-84
2022/06/21 00:46:37;;;;;;;3.17;2.63;;;12.50;99.90;;;;;;5043331;28;20635;-84
2022/06/21 00:49:28;;;;;;;7.00;2.63;;;12.30;99.90;;;;;;5044607;28;20458;-84
2022/06/21 00:52:18;;;;;;;2.97;2.70;;;12.10;99.90;;;;;;5009160;28;20403;-84
2022/06/21 00:55:11;;;;;;;3.20;2.90;;;12.30;99.90;;;;;;5025410;28;20503;-83
2022/06/21 00:57:56;;;;;;;3.20;2.90;;;12.20;99.90;;;;;;5043379;28;20450;-84
2022/06/21 01:01:00;;;;;;;3.53;3.10;;;12.00;99.90;;;;;;5044052;28;20387;-84
2022/06/21 01:03:51;;;;;;;3.17;2.97;;;12.00;99.90;;;;;;5014665;28;20406;-84
2022/06/21 01:06:42;;;;;;;3.40;2.40;;;11.90;99.90;;;;;;5044556;28;20394;-84
2022/06/21 01:09:42;;;;;;;5.63;2.80;;;11.90;99.90;;;;;;5029103;28;20601;-84
2022/06/21 01:12:34;;;;;;;3.60;2.80;;;11.60;99.90;;;;;;5043645;28;20457;-84
2022/06/21 01:15:23;;;;;;;3.77;3.00;;;11.60;99.90;;;;;;5022693;28;20539;-84
2022/06/21 01:18:09;;;;;;;3.50;2.30;;;11.50;99.90;;;;;;5041440;28;20410;-83
2022/06/21 01:20:56;;;;;;;2.60;2.40;;;11.60;99.90;;;;;;5043992;28;20382;-84
2022/06/21 01:24:06;;;;;;;9.13;3.10;;;11.60;99.90;;;;;;5044845;28;20462;-85
2022/06/21 01:27:03;;;;;;;5.00;3.23;;;11.60;99.90;;;;;;5045188;28;20386;-85
2022/06/21 01:29:48;;;;;;;3.87;3.00;;;11.60;99.90;;;;;;5050530;28;20476;-85
2022/06/21 01:32:34;;;;;;;3.93;2.93;;;11.60;99.90;;;;;;5044292;28;20508;-85
2022/06/21 01:35:30;;;;;;;6.93;2.87;;;11.50;99.90;;;;;;5042345;28;20379;-85
2022/06/21 01:38:21;;;;;;;2.87;2.67;;;11.60;99.90;;;;;;5042688;28;20390;-85
2022/06/21 01:41:10;;;;;;;4.13;3.43;;;11.70;99.90;;;;;;5042683;28;20514;-84
2022/06/21 01:43:59;;;;;;;10.27;3.80;;;11.60;99.90;;;;;;5042582;28;20417;-85
2022/06/21 01:46:44;;;;;;;3.43;3.00;;;11.70;99.90;;;;;;5027754;28;20387;-84
2022/06/21 01:49:33;;;;;;;3.20;2.50;;;11.70;99.90;;;;;;5027100;28;20442;-85
2022/06/21 01:52:24;;;;;;;4.47;3.57;;;11.80;99.90;;;;;;5042053;28;20450;-85
2022/06/21 01:55:14;;;;;;;5.20;3.40;;;12.00;99.90;;;;;;5042468;28;20825;-84
2022/06/21 01:58:00;;;;;;;5.80;3.30;;;12.10;99.90;;;;;;5040833;28;20450;-84
2022/06/21 02:00:52;;;;;;;4.60;3.10;;;12.00;99.90;;;;;;5041785;28;20394;-85
2022/06/21 02:03:41;;;;;;;4.37;3.57;;;12.10;99.90;;;;;;5042119;28;20399;-84
2022/06/21 02:06:31;;;;;;;3.50;3.00;;;12.10;99.90;;;;;;5042832;28;20434;-84
2022/06/21 02:09:25;;;;;;;3.37;3.17;;;12.10;99.90;;;;;;5013547;28;20451;-84
2022/06/21 02:12:16;;;;;;;3.23;3.00;;;11.90;99.90;;;;;;5027937;28;20386;-84
2022/06/21 02:15:07;;;;;;;4.60;3.10;;;11.90;99.90;;;;;;5042996;28;20382;-84
2022/06/21 02:17:53;;;;;;;4.10;3.60;;;11.90;99.90;;;;;;5042035;28;20387;-84
2022/06/21 02:20:45;;;;;;;5.30;3.37;;;12.00;99.90;;;;;;5042225;28;20482;-85
2022/06/21 02:23:30;;;;;;;3.97;2.87;;;11.90;99.90;;;;;;5042731;28;20419;-84
2022/06/21 02:26:15;;;;;;;3.40;3.10;;;11.70;99.90;;;;;;5026773;28;20426;-84
2022/06/21 02:29:00;;;;;;;3.67;3.00;;;11.80;99.90;;;;;;5042109;28;20437;-83
2022/06/21 02:31:49;;;;;;;3.77;2.83;;;11.60;99.90;;;;;;5026167;28;20454;-84
2022/06/21 02:34:38;;;;;;;3.10;2.80;;;11.60;99.90;;;;;;5029087;28;20446;-84
2022/06/21 02:37:23;;;;;;;6.13;3.00;;;11.70;99.90;;;;;;5042157;28;20483;-85
2022/06/21 02:40:21;;;;;;;4.63;4.03;;;11.60;99.90;;;;;;5042361;28;20391;-85
2022/06/21 02:43:11;;;;;;;3.13;2.93;;;11.60;99.90;;;;;;5041950;28;20391;-84
2022/06/21 02:46:08;;;;;;;5.20;4.70;;;11.50;99.90;;;;;;5041461;28;20378;-85
2022/06/21 02:48:59;;;;;;;3.30;2.80;;;11.50;99.90;;;;;;5013856;28;20954;-83
2022/06/21 02:51:51;;;;;;;3.97;3.03;;;11.50;99.90;;;;;;5041964;28;20403;-85
2022/06/21 02:54:52;;;;;;;5.43;3.53;;;11.60;99.90;;;;;;5042735;28;20931;-85
2022/06/21 02:57:43;;;;;;;4.30;3.53;;;11.60;99.90;;;;;;5043339;28;20551;-85
2022/06/21 03:00:29;;;;;;;3.33;3.03;;;11.50;99.90;;;;;;5043640;28;20397;-84
2022/06/21 03:03:18;;;;;;;3.13;2.93;;;11.60;99.90;;;;;;5042691;28;20394;-84
2022/06/21 03:06:08;;;;;;;5.23;2.80;;;11.40;99.90;;;;;;5027915;28;20419;-84
2022/06/21 03:08:57;;;;;;;2.80;2.60;;;11.40;99.90;;;;;;5025699;28;20747;-84
2022/06/21 03:11:44;;;;;;;5.07;3.03;;;11.70;99.90;;;;;;5041613;28;20448;-84
2022/06/21 03:14:34;;;;;;;3.20;3.00;;;11.80;99.90;;;;;;5041530;28;20395;-84
2022/06/21 03:17:24;;;;;;;5.33;3.57;;;11.80;99.90;;;;;;5041497;28;20474;-84
2022/06/21 03:20:14;;;;;;;6.23;4.00;;;12.00;99.90;;;;;;5027652;28;20415;-85
2022/06/21 03:23:00;;;;;;;3.80;3.10;;;12.00;99.90;;;;;;5012220;28;20458;-84
2022/06/21 03:25:52;;;;;;;3.57;3.27;;;11.70;99.90;;;;;;5026546;28;20395;-84
2022/06/21 03:28:43;;;;;;;4.13;3.37;;;11.80;99.90;;;;;;5041394;28;20475;-84
2022/06/21 03:31:35;;;;;;;3.20;3.00;;;11.60;99.90;;;;;;5041735;28;20931;-82
2022/06/21 03:34:24;;;;;;;4.10;3.50;;;11.50;99.90;;;;;;5042829;28;20391;-81
2022/06/21 03:37:09;;;;;;;5.30;3.50;;;11.70;99.90;;;;;;5052402;28;20387;-83
2022/06/21 03:42:56;;;;;;;3.70;3.40;;;11.60;99.90;;;;;;5044218;28;20438;-84
2022/06/21 03:45:44;;;;;;;3.53;2.90;;;11.30;99.90;;;;;;5039918;28;20514;-85
2022/06/21 03:48:38;;;;;;;2.77;2.57;;;11.20;99.90;;;;;;5039376;28;20466;-85
2022/06/21 03:51:31;;;;;;;3.70;3.40;;;11.20;99.90;;;;;;5012129;28;20943;-85
2022/06/21 03:54:33;;;;;;;3.40;3.10;;;11.40;99.90;;;;;;5040097;28;20749;-85
2022/06/21 03:57:27;;;;;;;3.43;3.00;;;11.40;99.90;;;;;;5039891;28;20465;-84
2022/06/21 04:00:14;;;;;;;4.27;3.20;;;11.60;99.90;;;;;;5041391;28;20522;-83
2022/06/21 04:03:06;;;;;;;3.60;3.30;;;11.60;99.90;;;;;;5040733;28;20891;-83
2022/06/21 04:05:58;;;;;;;3.27;3.07;;;11.60;99.90;;;;;;5040480;28;20453;-84
2022/06/21 04:08:51;;;;;;;5.13;3.43;;;11.70;99.90;;;;;;5052220;28;20465;-84
2022/06/21 04:11:44;;;;;;;3.60;2.70;;;11.80;99.90;;;;;;5050236;28;20383;-84
2022/06/21 04:14:41;;;;;;;3.33;3.13;;;11.90;99.90;;;;;;5025629;28;20441;-84
2022/06/21 04:17:45;;;;;;;5.07;2.93;;;11.80;99.90;;;;;;5033229;28;20432;-84
2022/06/21 04:20:52;;;;;;;3.87;3.63;;;12.00;99.90;;;;;;4995980;28;20513;-85
2022/06/21 04:23:47;;;;;;;3.60;3.30;;;12.00;99.90;;;;;;5018775;28;20528;-85
2022/06/21 04:26:47;;;;;;;5.30;3.13;;;12.10;99.90;;;;;;5017526;28;20500;-85
2022/06/21 04:29:38;;;;;;;3.83;3.50;;;12.40;99.90;;;;;;5017484;28;20458;-85
2022/06/21 04:32:43;;;;;;;5.90;3.80;;;12.40;99.90;;;;;;5015775;28;20462;-85
2022/06/21 04:35:35;;;;;;;3.37;3.07;;;12.60;99.90;;;;;;5021166;28;20461;-85
2022/06/21 04:38:39;;;;;;;3.57;3.27;;;12.50;99.90;;;;;;5016496;28;20491;-85
2022/06/21 04:41:31;;;;;;;4.33;3.57;;;12.70;99.90;;;;;;5018561;28;20403;-83
2022/06/21 04:44:24;;;;;;;3.73;3.43;;;13.00;99.90;;;;;;5004321;28;20435;-83
2022/06/21 04:47:23;;;;;;;5.60;3.77;;;13.30;99.90;;;;;;5018233;28;20769;-83
2022/06/21 04:50:21;;;;;;;4.70;4.27;;;13.60;99.90;;;;;;5019944;28;20431;-83
2022/06/21 04:53:33;;;;;;;6.43;3.90;;;14.00;99.90;;;;;;5010078;28;20415;-84
2022/06/21 04:56:44;;;;;;;5.07;3.90;;;14.30;99.90;;;;;;5050232;28;20492;-84
2022/06/21 04:59:34;;;;;;;4.53;4.20;;;14.60;99.90;;;;;;5047797;28;20501;-84
2022/06/21 05:02:31;;;;;;;5.57;4.47;;;14.80;99.90;;;;;;5045516;28;20402;-85
2022/06/21 05:05:20;;;;;;;6.10;4.20;;;14.90;99.90;;;;;;5039202;28;20401;-84
2022/06/21 05:08:13;;;;;;;7.60;4.47;;;14.90;99.90;;;;;;5053299;28;20442;-84
2022/06/21 05:11:01;;;;;;;6.60;4.07;;;14.50;99.90;;;;;;5061181;28;20486;-84
2022/06/21 05:13:48;;;;;;;7.70;3.87;;;13.50;99.90;;;;;;5059604;28;20914;-85
2022/06/21 05:16:36;;;;;;;3.80;3.53;;;13.50;99.90;;;;;;5049431;28;20430;-85
2022/06/21 05:19:29;;;;;;;5.67;5.17;;;13.90;99.90;;;;;;5043069;28;20482;-85
2022/06/21 05:22:27;;;;;;;4.60;4.20;;;13.30;99.90;;;;;;5033768;28;20422;-85
2022/06/21 05:25:30;;;;;;;5.63;3.87;;;13.40;99.90;;;;;;5038197;28;20969;-85
2022/06/21 05:28:38;;;;;;;6.13;3.87;;;13.70;99.90;;;;;;5055427;28;20925;-85
2022/06/21 05:31:28;;;;;;;6.23;4.50;;;13.80;99.90;;;;;;5059546;28;20421;-85
2022/06/21 05:34:23;;;;;;;4.20;3.80;;;13.70;99.90;;;;;;5051086;28;20438;-85
2022/06/21 05:37:28;;;;;;;7.67;3.40;;;13.80;99.90;;;;;;5039340;28;20522;-84
2022/06/21 05:40:30;;;;;;;4.83;4.20;;;14.00;99.90;;;;;;5038259;28;20449;-86
2022/06/21 05:43:20;;;;;;;3.87;3.53;;;13.90;99.90;;;;;;5031905;28;20415;-85
2022/06/21 05:46:12;;;;;;;4.57;3.73;;;13.90;99.90;;;;;;5073026;28;20432;-84
2022/06/21 05:49:00;;;;;;;5.03;4.30;;;14.00;99.90;;;;;;5075044;28;20452;-84
2022/06/21 05:51:45;;;;;;;5.23;3.97;;;14.20;99.90;;;;;;5074368;28;20440;-84
2022/06/21 05:54:36;;;;;;;4.10;3.60;;;14.20;99.90;;;;;;5069461;28;20493;-85
2022/06/21 05:57:25;;;;;;;11.50;3.60;;;14.30;99.90;;;;;;5066930;28;20496;-84
2022/06/21 06:00:49;;;;;;;3.60;3.30;;;14.50;99.90;;;;;;5030703;28;20492;-84
2022/06/21 06:03:58;;;;;;;4.27;3.87;;;14.70;99.90;;;;;;5060954;28;20484;-85
2022/06/21 06:06:44;;;;;;;5.03;3.80;;;15.20;99.90;;;;;;5059021;28;20445;-85
2022/06/21 06:09:34;;;;;;;5.30;3.90;;;15.70;99.90;;;;;;5059697;28;21043;-85
2022/06/21 06:12:30;;;;;;;4.00;3.57;;;15.90;99.90;;;;;;5057799;28;20413;-83
2022/06/21 06:15:22;;;;;;;7.00;4.07;;;16.00;99.90;;;;;;5051513;28;20409;-84
2022/06/21 06:18:18;;;;;;;4.00;3.70;;;15.80;99.90;;;;;;4998461;28;20529;-84
2022/06/21 06:21:14;;;;;;;4.80;4.30;;;15.80;99.90;;;;;;4992436;28;20507;-85
2022/06/21 06:24:14;;;;;;;4.70;4.00;;;15.60;99.90;;;;;;4996387;28;20431;-85
2022/06/21 06:27:01;;;;;;;4.83;4.50;;;15.60;99.90;;;;;;4992994;28;21089;-84
2022/06/21 06:29:48;;;;;;;3.77;3.47;;;16.00;99.90;;;;;;4994435;28;20523;-84
2022/06/21 06:32:39;;;;;;;6.23;5.07;;;16.30;99.90;;;;;;4991986;28;20597;-84
2022/06/21 06:35:25;;;;;;;13.13;5.60;;;16.50;99.90;;;;;;4981595;28;20992;-85
2022/06/21 06:38:14;;;;;;;5.20;4.70;;;16.70;99.90;;;;;;4989250;28;20511;-86
2022/06/21 06:41:09;;;;;;;8.03;4.90;;;16.90;99.90;;;;;;4992552;28;20483;-86
2022/06/21 06:43:58;;;;;;;7.57;4.70;;;17.00;99.90;;;;;;4991125;28;20469;-85
2022/06/21 06:46:45;;;;;;;5.30;4.90;;;17.00;99.90;;;;;;4972920;28;20955;-85
2022/06/21 06:49:37;;;;;;;5.93;4.67;;;17.10;99.90;;;;;;5023151;28;20581;-85
2022/06/21 06:52:28;;;;;;;4.73;4.30;;;16.70;99.90;;;;;;5051686;28;20421;-85
2022/06/21 06:55:24;;;;;;;5.47;4.30;;;16.60;99.90;;;;;;5041612;28;20477;-85
2022/06/21 06:58:49;;;;;;;11.67;5.07;;;16.60;99.90;;;;;;5032892;28;20509;-84
2022/06/21 07:01:50;;;;;;;7.07;5.50;;;16.70;99.90;;;;;;5034660;28;20780;-85
2022/06/21 07:04:39;;;;;;;5.30;4.80;;;16.90;99.90;;;;;;5036061;28;20461;-85
2022/06/21 07:07:36;;;;;;;5.73;5.30;;;17.10;99.90;;;;;;5024338;28;20426;-86
2022/06/21 07:10:27;;;;;;;6.00;4.57;;;16.80;99.90;;;;;;5029989;28;20951;-85
2022/06/21 07:13:12;;;;;;;6.30;4.70;;;17.00;99.90;;;;;;4994463;28;20471;-83
2022/06/21 07:16:05;;;;;;;4.60;4.20;;;17.10;99.90;;;;;;5018642;28;21018;-79
2022/06/21 07:18:52;;;;;;;6.50;4.93;;;17.20;99.90;;;;;;5016436;28;20919;-82
2022/06/21 07:21:38;;;;;;;8.27;4.63;;;17.40;99.90;;;;;;5031468;28;20500;-82
2022/06/21 07:24:23;;;;;;;5.47;4.17;;;17.10;99.90;;;;;;5019558;28;20952;-82
2022/06/21 07:27:13;;;;;;;8.20;4.40;;;16.80;99.90;;;;;;5039502;28;20998;-82
2022/06/21 07:30:03;;;;;;;5.93;4.47;;;17.00;99.90;;;;;;5032187;28;20496;-83
2022/06/21 07:32:54;;;;;;;4.47;4.07;;;17.20;99.90;;;;;;5031226;28;20441;-82
2022/06/21 07:36:03;;;;;;;4.30;3.90;;;17.30;99.90;;;;;;5035735;28;20457;-83
2022/06/21 07:38:56;;;;;;;6.90;3.57;;;17.50;99.90;;;;;;5027423;28;20434;-80
2022/06/21 07:41:50;;;;;;;16.67;4.33;;;17.80;99.90;;;;;;5002697;28;20439;-83
2022/06/21 07:44:43;;;;;;;3.90;3.43;;;18.00;99.90;;;;;;5009220;28;20535;-82
2022/06/21 07:47:37;;;;;;;6.97;3.90;;;18.00;99.90;;;;;;4997582;28;20494;-84
2022/06/21 07:50:44;;;;;;;10.10;3.90;;;18.20;99.90;;;;;;5008097;28;20450;-82
2022/06/21 07:53:35;;;;;;;7.20;3.40;;;18.30;99.90;;;;;;4997442;28;20871;-83
2022/06/21 07:56:31;;;;;;;5.27;3.40;;;18.50;99.90;;;;;;4997173;28;20460;-82
2022/06/21 07:59:20;;;;;;;3.67;2.57;;;18.40;99.90;;;;;;4996953;28;20490;-83
2022/06/21 08:08:52;;;;;;;7.07;2.87;;;18.70;99.90;;;;;;5013775;28;20458;-84
2022/06/21 08:11:41;;;;;;;3.47;2.73;;;18.90;99.90;;;;;;5019692;28;20892;-84
2022/06/21 08:14:30;;;;;;;3.40;3.10;;;18.50;99.90;;;;;;5009230;28;20492;-84
2022/06/21 08:17:38;;;;;;;4.00;2.83;;;18.50;99.90;;;;;;5029916;28;20434;-84
2022/06/21 08:20:41;;;;;;;4.83;3.53;;;18.70;99.90;;;;;;5022256;28;20862;-84
2022/06/21 08:23:34;;;;;;;3.10;2.80;;;18.40;99.90;;;;;;5034364;28;20418;-84
2022/06/21 08:26:44;;;;;;;3.80;3.23;;;18.40;99.90;;;;;;5018828;28;20440;-84
2022/06/21 08:29:44;;;;;;;4.20;2.90;;;18.80;99.90;;;;;;5033116;28;20468;-85
2022/06/21 08:32:38;;;;;;;4.57;3.07;;;19.00;99.90;;;;;;5014382;28;20542;-83
2022/06/21 08:35:33;;;;;;;6.50;2.73;;;19.00;99.90;;;;;;5036387;28;20565;-84
2022/06/21 08:38:28;;;;;;;2.67;2.47;;;19.10;99.90;;;;;;5003510;28;20450;-82
2022/06/21 08:41:54;;;;;;;6.23;2.73;;;19.10;99.90;;;;;;5018730;28;20516;-80
2022/06/21 08:48:32;;;;;;;4.03;2.77;;;18.80;99.90;;;;;;5022122;28;20475;-82
2022/06/21 08:51:48;;;;;;;6.67;2.60;;;19.10;99.90;;;;;;5016664;28;20521;-84
2022/06/21 08:54:45;;;;;;;2.60;2.40;;;19.30;99.90;;;;;;5034286;28;20525;-84
2022/06/21 08:57:56;;;;;;;2.73;2.53;;;19.70;99.90;;;;;;5018672;28;20458;-82
2022/06/21 09:00:52;;;;;;;2.63;2.43;;;19.90;99.90;;;;;;5018200;28;20518;-83
2022/06/21 09:04:00;;;;;;;3.07;2.87;;;20.00;99.90;;;;;;5029906;28;20994;-84
2022/06/21 09:07:08;;;;;;;2.50;2.30;;;19.40;99.90;;;;;;5034987;28;20447;-83
2022/06/21 09:10:05;;;;;;;3.17;2.87;;;19.20;99.90;;;;;;5023519;28;20515;-80
2022/06/21 09:13:13;;;;;;;6.73;3.03;;;19.00;99.90;;;;;;5017315;28;20459;-84
2022/06/21 09:16:17;;;;;;;4.70;2.70;;;19.50;99.90;;;;;;5035904;28;20438;-83
2022/06/21 09:19:40;;;;;;;5.20;2.77;;;20.00;99.90;;;;;;5017815;28;20947;-84
2022/06/21 09:22:51;;;;;;;4.77;2.80;;;20.20;99.90;;;;;;5035554;28;20506;-83
2022/06/21 09:26:01;;;;;;;3.00;2.53;;;20.10;99.90;;;;;;5024642;28;20476;-84
2022/06/21 09:29:00;;;;;;;4.37;2.37;;;19.80;99.90;;;;;;5032568;28;20830;-82
2022/06/21 09:32:08;;;;;;;3.60;2.23;;;20.20;99.90;;;;;;5031221;28;20542;-84
2022/06/21 09:35:19;;;;;;;2.90;2.03;;;20.50;99.90;;;;;;5035453;28;20502;-84
2022/06/21 09:38:19;;;;;;;4.03;2.07;;;20.30;99.90;;;;;;5034678;28;20876;-84
2022/06/21 09:41:15;;;;;;;3.80;2.20;;;20.70;99.90;;;;;;5007767;28;20449;-84
2022/06/21 09:44:21;;;;;;;4.53;2.33;;;20.60;99.90;;;;;;5032437;28;20431;-83
2022/06/21 09:47:28;;;;;;;2.33;2.10;;;19.80;99.90;;;;;;5001546;28;20433;-83
2022/06/21 09:50:24;;;;;;;1.90;1.80;;;20.00;99.90;;;;;;5037822;28;20508;-82
2022/06/21 09:53:28;;;;;;;3.87;2.00;;;20.60;99.90;;;;;;4986712;28;20757;-83
2022/06/21 09:56:52;;;;;;;4.20;1.97;;;20.70;99.90;;;;;;5036805;28;20504;-83
2022/06/21 10:00:11;;;;;;;7.77;2.40;;;21.00;99.60;;;;;;5047618;28;20477;-83
2022/06/21 10:03:12;;;;;;;2.97;2.73;;;21.30;99.90;;;;;;5029408;28;20429;-81
2022/06/21 10:06:23;;;;;;;2.20;2.00;;;21.40;98.20;;;;;;5044325;28;20461;-82
2022/06/21 10:09:33;;;;;;;2.53;2.23;;;21.50;95.40;;;;;;5037254;28;21045;-82
2022/06/21 10:12:52;;;;;;;2.20;2.00;;;21.50;94.90;;;;;;5033803;28;20533;-84
2022/06/21 10:15:47;;;;;;;3.57;1.87;;;21.50;93.70;;;;;;5038497;28;20437;-84
2022/06/21 10:18:57;;;;;;;3.10;1.80;;;21.90;92.50;;;;;;5050032;28;20434;-83
2022/06/21 10:22:13;;;;;;;3.53;2.33;;;22.30;94.10;;;;;;5055641;28;20453;-83
2022/06/21 10:25:24;;;;;;;1.90;1.80;;;22.40;98.40;;;;;;5030213;28;20516;-83
2022/06/21 10:28:31;;;;;;;2.73;2.53;;;22.40;97.90;;;;;;5041071;28;20534;-83
2022/06/21 10:31:33;;;;;;;10.47;2.40;;;22.30;96.10;;;;;;5030012;28;20521;-84
2022/06/21 10:34:44;;;;;;;3.20;2.33;;;22.00;98.00;;;;;;5015319;28;20495;-82
2022/06/21 10:37:52;;;;;;;2.60;2.40;;;21.90;95.20;;;;;;5033928;28;20512;-84
2022/06/21 10:41:02;;;;;;;3.43;2.57;;;22.70;98.30;;;;;;5049249;28;20430;-84
2022/06/21 10:44:20;;;;;;;3.17;2.20;;;23.20;92.80;;;;;;5035541;28;20446;-83
2022/06/21 10:47:23;;;;;;;2.80;2.50;;;23.40;93.60;;;;;;5042281;28;20455;-83
2022/06/21 10:50:32;;;;;;;2.20;2.00;;;23.60;90.80;;;;;;5042158;28;20443;-82
2022/06/21 10:53:35;;;;;;;2.53;1.90;;;23.60;91.80;;;;;;5038361;28;20488;-80
2022/06/21 11:03:28;;;;;;;2.43;2.23;;;23.10;89.00;;;;;;5031864;28;20524;-82
2022/06/21 11:06:32;;;;;;;4.43;3.40;;;23.30;88.00;;;;;;5024683;28;20495;-81
2022/06/21 11:09:26;;;;;;;8.40;5.63;;;23.60;88.90;;;;;;5038475;28;20496;-82
2022/06/21 11:15:52;;;;;;;7.53;2.53;;;24.10;88.70;;;;;;5034048;28;20513;-80
2022/06/21 11:19:12;;;;;;;2.00;1.90;;;24.40;87.00;;;;;;5054477;28;20467;-81
2022/06/21 11:22:15;;;;;;;2.47;1.80;;;24.30;90.40;;;;;;5057184;28;20425;-82
2022/06/21 11:25:20;;;;;;;2.00;1.80;;;24.00;86.40;;;;;;5023789;28;20437;-81
2022/06/21 11:28:29;;;;;;;3.57;2.17;;;23.50;90.00;;;;;;5038332;28;20818;-80
2022/06/21 11:31:36;;;;;;;3.93;2.40;;;23.70;90.50;;;;;;5032816;28;20449;-82
2022/06/21 11:34:46;;;;;;;2.77;2.47;;;24.20;88.60;;;;;;5038970;28;20422;-83
2022/06/21 11:37:48;;;;;;;2.97;2.20;;;23.80;85.80;;;;;;5044135;28;20425;-83
2022/06/21 11:40:49;;;;;;;3.87;2.07;;;24.20;88.80;;;;;;5013579;28;20948;-80
2022/06/21 11:43:58;;;;;;;2.73;2.20;;;23.90;85.90;;;;;;5039929;28;20464;-84
2022/06/21 11:46:51;;;;;;;4.57;2.50;;;23.70;87.20;;;;;;5030237;28;20448;-83
2022/06/21 11:49:39;;;;;;;4.70;2.87;;;23.90;86.40;;;;;;5054550;28;20461;-84
2022/06/21 11:52:47;;;;;;;3.83;2.17;;;23.70;85.70;;;;;;5015240;28;20543;-82
2022/06/21 11:55:41;;;;;;;4.30;2.53;;;24.10;84.00;;;;;;5032153;28;20456;-83
2022/06/21 11:59:03;;;;;;;2.57;2.23;;;24.00;83.30;;;;;;5052018;28;20441;-85
2022/06/21 12:02:04;;;;;;;3.00;2.47;;;23.70;83.90;;;;;;5056546;28;20494;-86
2022/06/21 12:05:00;;;;;;;4.30;2.17;;;23.90;81.90;;;;;;5065820;28;20548;-86
2022/06/21 12:08:10;;;;;;;2.70;2.13;;;24.20;80.90;;;;;;5059094;28;20417;-84
2022/06/21 12:11:08;;;;;;;2.23;2.03;;;24.00;82.40;;;;;;4962808;28;20929;-84
2022/06/21 12:14:23;;;;;;;1.77;1.67;;;24.30;81.00;;;;;;4975340;28;20458;-85
2022/06/21 12:17:20;;;;;;;2.40;2.20;;;24.20;79.60;;;;;;4971680;28;20469;-82
2022/06/21 12:20:14;;;;;;;2.10;2.00;;;25.30;81.20;;;;;;4974385;28;20428;-83
2022/06/21 12:23:09;;;;;;;2.33;2.13;;;25.10;74.20;;;;;;4978459;28;20428;-83
2022/06/21 12:25:54;;;;;;;2.17;1.83;;;25.90;74.20;;;;;;4963772;28;20500;-84
2022/06/21 12:28:40;;;;;;;2.57;2.20;;;25.50;71.80;;;;;;4978140;28;20560;-83
2022/06/21 12:31:33;;;;;;;2.07;1.90;;;26.30;76.90;;;;;;4963039;28;20772;-82
2022/06/21 12:34:33;;;;;;;2.30;2.10;;;26.10;69.30;;;;;;4972715;28;20440;-83
2022/06/21 12:37:25;;;;;;;2.37;2.00;;;25.70;72.50;;;;;;4972329;28;20428;-84
2022/06/21 12:40:35;;;;;;;2.47;2.20;;;26.60;69.40;;;;;;4958590;28;20948;-86
2022/06/21 12:43:53;;;;;;;2.67;2.37;;;27.40;66.70;;;;;;5039097;28;20425;-84
2022/06/21 12:47:05;;;;;;;2.10;2.00;;;26.30;70.30;;;;;;5044845;28;20425;-84
2022/06/21 12:50:23;;;;;;;2.10;1.90;;;26.20;65.40;;;;;;5052354;28;20507;-82
2022/06/21 12:53:47;;;;;;;1.60;1.50;;;26.30;64.90;;;;;;5042553;28;20452;-84
2022/06/21 12:57:03;;;;;;;1.90;1.80;;;25.80;62.70;;;;;;5044745;28;21118;-83
2022/06/21 13:00:09;;;;;;;1.93;1.67;;;26.00;64.50;;;;;;5058521;28;20501;-84
2022/06/21 13:03:28;;;;;;;2.73;2.50;;;26.70;64.00;;;;;;5053438;28;20444;-84
2022/06/21 13:06:44;;;;;;;3.87;2.23;;;25.80;65.70;;;;;;5025525;28;20433;-85
2022/06/21 13:10:04;;;;;;;2.07;1.83;;;27.30;65.00;;;;;;5050006;28;20540;-83
2022/06/21 13:13:23;;;;;;;4.63;2.20;;;27.60;58.90;;;;;;5039306;28;20773;-82
2022/06/21 13:16:29;;;;;;;2.40;2.10;;;27.40;58.80;;;;;;5064315;28;20419;-82
2022/06/21 13:19:34;;;;;;;2.40;2.20;;;26.20;59.60;;;;;;5059116;28;21040;-84
2022/06/21 13:22:39;;;;;;;1.80;1.70;;;27.80;62.80;;;;;;5057132;28;20471;-81
2022/06/21 13:25:41;;;;;;;4.90;2.10;;;28.90;56.70;;;;;;5063164;28;20424;-84
2022/06/21 13:28:45;;;;;;;2.33;2.13;;;29.20;54.10;;;;;;5058033;28;20495;-83
2022/06/21 13:31:44;;;;;;;2.53;2.33;;;28.90;55.90;;;;;;5050031;28;20764;-84
2022/06/21 13:34:43;;;;;;;2.97;1.80;;;28.60;56.20;;;;;;5057592;28;20436;-83
2022/06/21 13:37:36;;;;;;;3.67;2.60;;;29.00;55.50;;;;;;5032753;28;20476;-83
2022/06/21 13:40:32;;;;;;;4.53;2.30;;;29.60;55.90;;;;;;5043655;28;20509;-86
2022/06/21 13:43:39;;;;;;;2.38;2.17;;;30.30;57.50;;;;;;5061792;28;20260;-84
2022/06/21 13:46:31;;;;;;;3.15;2.08;;;30.10;50.90;;;;;;5071047;28;20194;-84
2022/06/21 13:49:24;;;;;;;2.67;2.47;;;30.10;53.30;;;;;;5059307;28;20255;-86
2022/06/21 13:52:20;;;;;;;2.35;2.15;;;29.40;51.90;;;;;;5065431;28;20314;-86
2022/06/21 13:55:21;;;;;;;8.00;2.45;;;29.20;51.50;;;;;;5065691;28;20255;-86
2022/06/21 13:58:29;;;;;;;2.10;1.90;;;29.90;52.20;;;;;;5054797;28;20307;-84
2022/06/21 14:01:27;;;;;;;4.22;3.47;;;29.30;51.70;;;;;;5048282;28;20190;-84
2022/06/21 14:04:44;;;;;;;1.90;1.75;;;29.90;53.60;;;;;;5052636;28;20562;-86
2022/06/21 14:07:46;;;;;;;2.35;2.15;;;29.40;52.70;;;;;;5048069;28;20185;-86
2022/06/21 14:10:40;;;;;;;4.40;3.97;;;29.00;50.10;;;;;;5054454;28;20274;-85
2022/06/21 14:13:54;;;;;;;2.35;2.15;;;29.30;50.70;;;;;;5064815;28;20309;-86
2022/06/21 14:16:57;;;;;;;2.53;2.33;;;28.90;51.00;;;;;;5054496;28;20245;-85
2022/06/21 14:20:05;;;;;;;2.50;2.30;;;28.90;50.10;;;;;;5053614;28;20736;-86
2022/06/21 14:23:07;;;;;;;2.00;1.75;;;29.00;49.40;;;;;;5053130;28;20637;-85
2022/06/21 14:26:09;;;;;;;4.95;1.80;;;29.00;51.70;;;;;;5056467;28;20202;-82
2022/06/21 14:29:08;;;;;;;2.13;2.03;;;28.40;52.10;;;;;;5050703;28;20287;-84
2022/06/21 14:32:12;;;;;;;2.80;1.97;;;28.10;50.50;;;;;;5046300;28;20238;-84
2022/06/21 14:35:18;;;;;;;4.00;2.07;;;27.30;50.50;;;;;;5033983;28;20523;-83
2022/06/21 14:38:12;;;;;;;1.67;1.57;;;28.00;52.40;;;;;;5039814;28;20437;-83
2022/06/21 14:41:06;;;;;;;2.57;2.37;;;28.40;49.60;;;;;;5015722;28;20444;-83
2022/06/21 14:43:58;;;;;;;5.63;2.17;;;28.10;49.90;;;;;;5023477;28;20491;-83
2022/06/21 14:47:02;;;;;;;2.50;2.30;;;27.90;51.70;;;;;;5033948;28;20433;-84
2022/06/21 14:50:03;;;;;;;2.03;1.83;;;28.20;50.30;;;;;;5027405;28;20960;-84
2022/06/21 14:53:06;;;;;;;1.70;1.60;;;28.10;51.30;;;;;;5019089;28;20446;-84
2022/06/21 14:56:18;;;;;;;2.30;1.80;;;28.60;51.80;;;;;;5034041;28;20461;-84
2022/06/21 14:59:24;;;;;;;1.90;1.80;;;29.10;50.00;;;;;;5026536;28;20987;-84
2022/06/21 15:02:37;;;;;;;1.97;1.87;;;29.90;48.20;;;;;;5037172;28;20457;-83
2022/06/21 15:05:33;;;;;;;2.47;1.73;;;29.50;48.20;;;;;;5017182;28;20442;-83
2022/06/21 15:08:49;;;;;;;2.37;2.27;;;29.20;49.20;;;;;;5047778;28;20433;-83
2022/06/21 15:12:00;;;;;;;2.70;2.50;;;28.70;48.60;;;;;;5029114;28;20422;-84
2022/06/21 15:14:53;;;;;;;2.20;1.40;;;28.30;51.50;;;;;;5042914;28;20497;-82
2022/06/21 15:17:52;;;;;;;2.83;1.87;;;27.70;49.50;;;;;;5052355;28;20417;-83
2022/06/21 15:20:54;;;;;;;3.60;2.07;;;27.40;50.50;;;;;;5052424;28;20433;-83
2022/06/21 15:23:56;;;;;;;1.90;1.80;;;27.70;50.30;;;;;;5043335;28;20449;-83
2022/06/21 15:26:51;;;;;;;2.50;1.97;;;27.80;48.30;;;;;;5060788;28;20888;-82
2022/06/21 15:29:47;;;;;;;1.53;1.43;;;28.60;49.00;;;;;;5041617;28;20445;-83
2022/06/21 15:32:44;;;;;;;2.57;2.37;;;28.50;49.00;;;;;;5063143;28;20463;-83
2022/06/21 15:35:39;;;;;;;2.27;2.07;;;27.80;49.20;;;;;;5042747;28;20440;-83
2022/06/21 15:38:30;;;;;;;2.17;1.50;;;27.70;48.60;;;;;;5054297;28;20456;-83
2022/06/21 15:41:21;;;;;;;6.00;2.23;;;27.80;48.50;;;;;;5066708;28;20460;-85
2022/06/21 15:44:26;;;;;;;2.60;2.40;;;27.70;50.30;;;;;;5047016;28;20472;-84
2022/06/21 15:50:53;;;;;;;2.30;2.10;;;28.00;50.70;;;;;;5045564;28;20814;-82